Mt Samurai — A8PX7 — position and weather

sailwx.info

Track history (hours):
 
Tides and Currents Weather Stations Pressure Air Temp Water Temp Dewpoint Dewpoint Depression Visibility Wind Speed Wind Dir Waves Ship Positions

Mt Samurai

Last reported at 2017-Nov-19 15:01 UTC. Time now 2017-Nov-21 06:31 UTC.
Position N 36°01' E 014°43'.

Length 274 m; draft 14.7 m.

Type: Tanker. MMSI: 636013852.

Date/timePositionNaut miles runAvg speedWind from/ knotsBaromVisibWave heightAir tempDewpointWater temp
2017-Nov-19 15:01N 36°01' E 014°43'110.7
2017-Nov-19 14:56N 36°01' E 014°42'3 7.5
2017-Nov-19 14:30N 36°01' E 014°38'1 1.2
2017-Nov-19 14:00N 36°00' E 014°37'0 0.7
2017-Nov-19 13:30N 36°00' E 014°37'0 0.6
2017-Nov-19 13:00N 36°00' E 014°36'0 0.5
2017-Nov-19 12:31N 36°00' E 014°36'0 0.6
2017-Nov-19 12:00N 36°00' E 014°35'0 0.5
2017-Nov-19 11:31N 36°01' E 014°35'0 0.6
2017-Nov-19 11:00N 36°01' E 014°35'0 0.4
2017-Nov-19 10:31N 36°01' E 014°35'1 1.5
2017-Nov-19 09:59N 36°01' E 014°34'5 9.3
2017-Nov-19 09:30N 36°05' E 014°31'510.9
2017-Nov-19 09:00N 36°09' E 014°27'612.8
2017-Nov-19 08:30N 36°14' E 014°22'713.1
2017-Nov-19 08:00N 36°17' E 014°14'713.0
2017-Nov-19 07:30N 36°19' E 014°07'612.9
2017-Nov-19 07:00N 36°22' E 013°60'712.9
2017-Nov-19 06:29N 36°25' E 013°52'612.9
2017-Nov-19 06:00N 36°27' E 013°45'  
2017-Nov-09 22:32N 36°29' E 013°35'311.3
2017-Nov-09 22:14N 36°27' E 013°38'311.3
2017-Nov-09 22:00N 36°26' E 013°41'611.3
2017-Nov-09 21:30N 36°23' E 013°47'611.3
2017-Nov-09 21:00N 36°21' E 013°54'611.4
2017-Nov-09 20:30N 36°18' E 014°00'611.6
2017-Nov-09 20:00N 36°16' E 014°06'611.5
2017-Nov-09 19:30N 36°13' E 014°13'611.5
2017-Nov-09 19:00N 36°10' E 014°19'611.4
2017-Nov-09 18:30N 36°07' E 014°25'611.3
2017-Nov-09 18:00N 36°03' E 014°30'611.2
2017-Nov-09 17:30N 35°60' E 014°36'510.7
2017-Nov-09 16:59N 35°56' E 014°40'5 9.8
2017-Nov-09 16:30N 35°53' E 014°44'1 1.4
2017-Nov-09 15:59N 35°52' E 014°45'0 0.0
2017-Nov-09 15:29N 35°52' E 014°45'  
Track history (hours):
 
Tides and Currents Weather Stations Pressure Air Temp Water Temp Dewpoint Dewpoint Depression Visibility Wind Speed Wind Dir Waves Ship Positions

Mt Samurai

Last reported at 2017-Nov-19 15:01 UTC. Time now 2017-Nov-21 06:31 UTC.
Position N 36°01' E 014°43'.

Length 274 m; draft 14.7 m.

Type: Tanker. MMSI: 636013852.

Date/timePositionNaut miles runAvg speedWind from/ knotsBaromVisibWave heightAir tempDewpointWater temp
2017-Nov-19 15:01N 36°01' E 014°43'110.7
2017-Nov-19 14:56N 36°01' E 014°42'3 7.5
2017-Nov-19 14:30N 36°01' E 014°38'1 1.2
2017-Nov-19 14:00N 36°00' E 014°37'0 0.7
2017-Nov-19 13:30N 36°00' E 014°37'0 0.6
2017-Nov-19 13:00N 36°00' E 014°36'0 0.5
2017-Nov-19 12:31N 36°00' E 014°36'0 0.6
2017-Nov-19 12:00N 36°00' E 014°35'0 0.5
2017-Nov-19 11:31N 36°01' E 014°35'0 0.6
2017-Nov-19 11:00N 36°01' E 014°35'0 0.4
2017-Nov-19 10:31N 36°01' E 014°35'1 1.5
2017-Nov-19 09:59N 36°01' E 014°34'5 9.3
2017-Nov-19 09:30N 36°05' E 014°31'510.9
2017-Nov-19 09:00N 36°09' E 014°27'612.8
2017-Nov-19 08:30N 36°14' E 014°22'713.1
2017-Nov-19 08:00N 36°17' E 014°14'713.0
2017-Nov-19 07:30N 36°19' E 014°07'612.9
2017-Nov-19 07:00N 36°22' E 013°60'712.9
2017-Nov-19 06:29N 36°25' E 013°52'612.9
2017-Nov-19 06:00N 36°27' E 013°45'  
2017-Nov-09 22:32N 36°29' E 013°35'311.3
2017-Nov-09 22:14N 36°27' E 013°38'311.3
2017-Nov-09 22:00N 36°26' E 013°41'611.3
2017-Nov-09 21:30N 36°23' E 013°47'611.3
2017-Nov-09 21:00N 36°21' E 013°54'611.4
2017-Nov-09 20:30N 36°18' E 014°00'611.6
2017-Nov-09 20:00N 36°16' E 014°06'611.5
2017-Nov-09 19:30N 36°13' E 014°13'611.5
2017-Nov-09 19:00N 36°10' E 014°19'611.4
2017-Nov-09 18:30N 36°07' E 014°25'611.3
2017-Nov-09 18:00N 36°03' E 014°30'611.2
2017-Nov-09 17:30N 35°60' E 014°36'510.7
2017-Nov-09 16:59N 35°56' E 014°40'5 9.8
2017-Nov-09 16:30N 35°53' E 014°44'1 1.4
2017-Nov-09 15:59N 35°52' E 014°45'0 0.0
2017-Nov-09 15:29N 35°52' E 014°45'  

Dump ship's entire track history